sensor_id;sensor_type;location;lat;lon;timestamp;P1;durP1;ratioP1;P2;durP2;ratioP2
462;SDS011;218;51.902;9.542;2023-07-29T00:01:36;2.27;;;2.17;;
462;SDS011;218;51.902;9.542;2023-07-29T00:04:05;2.50;;;2.40;;
462;SDS011;218;51.902;9.542;2023-07-29T00:06:33;3.10;;;2.90;;
462;SDS011;218;51.902;9.542;2023-07-29T00:09:02;6.50;;;2.40;;
462;SDS011;218;51.902;9.542;2023-07-29T00:11:33;2.30;;;2.20;;
462;SDS011;218;51.902;9.542;2023-07-29T00:14:00;4.43;;;2.60;;
462;SDS011;218;51.902;9.542;2023-07-29T00:16:27;2.30;;;2.10;;
462;SDS011;218;51.902;9.542;2023-07-29T00:18:54;3.20;;;2.50;;
462;SDS011;218;51.902;9.542;2023-07-29T00:21:21;2.43;;;2.33;;
462;SDS011;218;51.902;9.542;2023-07-29T00:23:48;2.30;;;2.20;;
462;SDS011;218;51.902;9.542;2023-07-29T00:26:15;2.70;;;2.60;;
462;SDS011;218;51.902;9.542;2023-07-29T00:28:43;2.20;;;2.00;;
462;SDS011;218;51.902;9.542;2023-07-29T00:31:10;2.23;;;2.13;;
462;SDS011;218;51.902;9.542;2023-07-29T00:33:37;3.50;;;2.90;;
462;SDS011;218;51.902;9.542;2023-07-29T00:36:04;3.30;;;2.87;;
462;SDS011;218;51.902;9.542;2023-07-29T00:38:31;2.33;;;2.20;;
462;SDS011;218;51.902;9.542;2023-07-29T00:40:58;7.80;;;2.50;;
462;SDS011;218;51.902;9.542;2023-07-29T00:43:28;2.20;;;2.00;;
462;SDS011;218;51.902;9.542;2023-07-29T00:45:56;3.70;;;2.50;;
462;SDS011;218;51.902;9.542;2023-07-29T00:48:24;3.63;;;2.70;;
462;SDS011;218;51.902;9.542;2023-07-29T00:50:51;2.47;;;2.27;;
462;SDS011;218;51.902;9.542;2023-07-29T00:53:18;9.40;;;3.13;;
462;SDS011;218;51.902;9.542;2023-07-29T00:55:45;3.10;;;2.73;;
462;SDS011;218;51.902;9.542;2023-07-29T00:58:12;2.47;;;2.27;;
462;SDS011;218;51.902;9.542;2023-07-29T01:00:39;3.00;;;2.80;;
462;SDS011;218;51.902;9.542;2023-07-29T01:03:08;3.63;;;2.67;;
462;SDS011;218;51.902;9.542;2023-07-29T01:05:36;2.30;;;2.20;;
462;SDS011;218;51.902;9.542;2023-07-29T01:08:09;2.63;;;2.43;;
462;SDS011;218;51.902;9.542;2023-07-29T01:10:43;2.30;;;2.20;;
462;SDS011;218;51.902;9.542;2023-07-29T01:13:19;2.87;;;2.60;;
462;SDS011;218;51.902;9.542;2023-07-29T01:15:55;2.33;;;2.23;;
462;SDS011;218;51.902;9.542;2023-07-29T01:18:26;4.73;;;2.67;;
462;SDS011;218;51.902;9.542;2023-07-29T01:20:57;2.97;;;2.77;;
462;SDS011;218;51.902;9.542;2023-07-29T01:23:27;2.60;;;2.40;;
462;SDS011;218;51.902;9.542;2023-07-29T01:25:56;2.70;;;2.57;;
462;SDS011;218;51.902;9.542;2023-07-29T01:28:24;3.13;;;2.50;;
462;SDS011;218;51.902;9.542;2023-07-29T01:30:52;2.40;;;2.20;;
462;SDS011;218;51.902;9.542;2023-07-29T01:33:25;4.00;;;2.37;;
462;SDS011;218;51.902;9.542;2023-07-29T01:35:54;2.40;;;2.07;;
462;SDS011;218;51.902;9.542;2023-07-29T01:38:29;2.70;;;2.40;;
462;SDS011;218;51.902;9.542;2023-07-29T01:41:00;3.17;;;2.50;;
462;SDS011;218;51.902;9.542;2023-07-29T01:43:27;3.57;;;2.10;;
462;SDS011;218;51.902;9.542;2023-07-29T01:45:55;2.70;;;2.60;;
462;SDS011;218;51.902;9.542;2023-07-29T01:48:22;2.80;;;2.60;;
462;SDS011;218;51.902;9.542;2023-07-29T01:50:49;3.00;;;2.70;;
462;SDS011;218;51.902;9.542;2023-07-29T01:53:16;3.23;;;2.53;;
462;SDS011;218;51.902;9.542;2023-07-29T01:55:44;8.63;;;2.60;;
462;SDS011;218;51.902;9.542;2023-07-29T01:58:11;2.40;;;2.30;;
462;SDS011;218;51.902;9.542;2023-07-29T02:00:39;2.80;;;2.60;;
462;SDS011;218;51.902;9.542;2023-07-29T02:03:06;2.80;;;2.60;;
462;SDS011;218;51.902;9.542;2023-07-29T02:05:33;2.90;;;2.70;;
462;SDS011;218;51.902;9.542;2023-07-29T02:08:00;4.30;;;2.60;;
462;SDS011;218;51.902;9.542;2023-07-29T02:10:27;2.60;;;2.40;;
462;SDS011;218;51.902;9.542;2023-07-29T02:12:56;3.03;;;2.70;;
462;SDS011;218;51.902;9.542;2023-07-29T02:15:23;2.20;;;2.10;;
462;SDS011;218;51.902;9.542;2023-07-29T02:17:50;2.80;;;2.60;;
462;SDS011;218;51.902;9.542;2023-07-29T02:20:17;2.40;;;2.20;;
462;SDS011;218;51.902;9.542;2023-07-29T02:22:44;2.50;;;2.30;;
462;SDS011;218;51.902;9.542;2023-07-29T02:25:11;2.40;;;2.30;;
462;SDS011;218;51.902;9.542;2023-07-29T02:27:38;2.10;;;2.00;;
462;SDS011;218;51.902;9.542;2023-07-29T02:30:07;2.97;;;2.77;;
462;SDS011;218;51.902;9.542;2023-07-29T02:32:35;2.60;;;2.40;;
462;SDS011;218;51.902;9.542;2023-07-29T02:35:02;2.40;;;2.30;;
462;SDS011;218;51.902;9.542;2023-07-29T02:37:30;4.20;;;2.50;;
462;SDS011;218;51.902;9.542;2023-07-29T02:39:57;4.63;;;2.70;;
462;SDS011;218;51.902;9.542;2023-07-29T02:42:24;2.27;;;2.17;;
462;SDS011;218;51.902;9.542;2023-07-29T02:44:51;3.10;;;2.80;;
462;SDS011;218;51.902;9.542;2023-07-29T02:47:19;2.27;;;2.13;;
462;SDS011;218;51.902;9.542;2023-07-29T02:49:46;2.93;;;2.30;;
462;SDS011;218;51.902;9.542;2023-07-29T02:52:13;2.30;;;2.10;;
462;SDS011;218;51.902;9.542;2023-07-29T02:54:40;3.23;;;3.03;;
462;SDS011;218;51.902;9.542;2023-07-29T02:57:07;3.03;;;2.70;;
462;SDS011;218;51.902;9.542;2023-07-29T02:59:34;2.70;;;2.57;;
462;SDS011;218;51.902;9.542;2023-07-29T03:02:01;2.80;;;2.60;;
462;SDS011;218;51.902;9.542;2023-07-29T03:04:29;2.53;;;2.43;;
462;SDS011;218;51.902;9.542;2023-07-29T03:06:56;4.47;;;3.10;;
462;SDS011;218;51.902;9.542;2023-07-29T03:09:24;3.20;;;3.00;;
462;SDS011;218;51.902;9.542;2023-07-29T03:11:51;2.13;;;2.03;;
462;SDS011;218;51.902;9.542;2023-07-29T03:14:19;5.17;;;2.70;;
462;SDS011;218;51.902;9.542;2023-07-29T03:16:46;2.40;;;2.30;;
462;SDS011;218;51.902;9.542;2023-07-29T03:19:14;2.30;;;2.10;;
462;SDS011;218;51.902;9.542;2023-07-29T03:21:43;2.80;;;2.57;;
462;SDS011;218;51.902;9.542;2023-07-29T03:24:10;2.33;;;2.23;;
462;SDS011;218;51.902;9.542;2023-07-29T03:26:37;3.60;;;2.77;;
462;SDS011;218;51.902;9.542;2023-07-29T03:29:04;2.50;;;2.40;;
462;SDS011;218;51.902;9.542;2023-07-29T03:31:31;2.10;;;2.00;;
462;SDS011;218;51.902;9.542;2023-07-29T03:33:58;2.20;;;2.10;;
462;SDS011;218;51.902;9.542;2023-07-29T03:36:25;2.60;;;2.40;;
462;SDS011;218;51.902;9.542;2023-07-29T03:38:53;4.73;;;3.10;;
462;SDS011;218;51.902;9.542;2023-07-29T03:41:20;2.60;;;2.40;;
462;SDS011;218;51.902;9.542;2023-07-29T03:43:47;2.43;;;2.23;;
462;SDS011;218;51.902;9.542;2023-07-29T03:46:14;2.80;;;2.70;;
462;SDS011;218;51.902;9.542;2023-07-29T03:48:44;3.00;;;2.80;;
462;SDS011;218;51.902;9.542;2023-07-29T03:51:11;2.47;;;2.27;;
462;SDS011;218;51.902;9.542;2023-07-29T03:53:38;2.40;;;2.30;;
462;SDS011;218;51.902;9.542;2023-07-29T03:56:06;2.53;;;2.43;;
462;SDS011;218;51.902;9.542;2023-07-29T03:58:34;3.03;;;2.83;;
462;SDS011;218;51.902;9.542;2023-07-29T04:01:01;2.10;;;2.00;;
462;SDS011;218;51.902;9.542;2023-07-29T04:03:29;3.03;;;2.83;;
462;SDS011;218;51.902;9.542;2023-07-29T04:05:56;3.20;;;3.00;;
462;SDS011;218;51.902;9.542;2023-07-29T04:08:23;2.90;;;2.70;;
462;SDS011;218;51.902;9.542;2023-07-29T04:10:50;4.70;;;3.37;;
462;SDS011;218;51.902;9.542;2023-07-29T04:13:18;2.70;;;2.53;;
462;SDS011;218;51.902;9.542;2023-07-29T04:15:46;2.83;;;2.63;;
462;SDS011;218;51.902;9.542;2023-07-29T04:18:13;2.43;;;2.33;;
462;SDS011;218;51.902;9.542;2023-07-29T04:20:40;2.80;;;2.60;;
462;SDS011;218;51.902;9.542;2023-07-29T04:23:07;2.53;;;2.43;;
462;SDS011;218;51.902;9.542;2023-07-29T04:25:34;2.43;;;2.20;;
462;SDS011;218;51.902;9.542;2023-07-29T04:28:01;2.67;;;2.57;;
462;SDS011;218;51.902;9.542;2023-07-29T04:30:31;2.80;;;2.60;;
462;SDS011;218;51.902;9.542;2023-07-29T04:32:58;3.03;;;2.83;;
462;SDS011;218;51.902;9.542;2023-07-29T04:35:25;3.60;;;3.30;;
462;SDS011;218;51.902;9.542;2023-07-29T04:37:52;2.90;;;2.70;;
462;SDS011;218;51.902;9.542;2023-07-29T04:40:19;2.80;;;2.70;;
462;SDS011;218;51.902;9.542;2023-07-29T04:42:47;3.40;;;3.20;;
462;SDS011;218;51.902;9.542;2023-07-29T04:45:14;2.80;;;2.60;;
462;SDS011;218;51.902;9.542;2023-07-29T04:47:43;2.70;;;2.53;;
462;SDS011;218;51.902;9.542;2023-07-29T04:50:10;3.17;;;2.97;;
462;SDS011;218;51.902;9.542;2023-07-29T04:52:37;3.00;;;2.80;;
462;SDS011;218;51.902;9.542;2023-07-29T04:55:04;3.00;;;2.80;;
462;SDS011;218;51.902;9.542;2023-07-29T04:57:31;3.13;;;2.80;;
462;SDS011;218;51.902;9.542;2023-07-29T04:59:58;3.10;;;2.80;;
462;SDS011;218;51.902;9.542;2023-07-29T05:02:25;2.83;;;2.63;;
462;SDS011;218;51.902;9.542;2023-07-29T05:04:53;3.50;;;3.30;;
462;SDS011;218;51.902;9.542;2023-07-29T05:07:20;3.03;;;2.83;;
462;SDS011;218;51.902;9.542;2023-07-29T05:09:47;2.93;;;2.60;;
462;SDS011;218;51.902;9.542;2023-07-29T05:12:15;3.57;;;2.63;;
462;SDS011;218;51.902;9.542;2023-07-29T05:14:41;3.53;;;3.07;;
462;SDS011;218;51.902;9.542;2023-07-29T05:17:08;2.77;;;2.67;;
462;SDS011;218;51.902;9.542;2023-07-29T05:19:35;2.70;;;2.43;;
462;SDS011;218;51.902;9.542;2023-07-29T05:22:04;2.80;;;2.60;;
462;SDS011;218;51.902;9.542;2023-07-29T05:24:31;3.30;;;3.00;;
462;SDS011;218;51.902;9.542;2023-07-29T05:26:58;3.07;;;2.77;;
462;SDS011;218;51.902;9.542;2023-07-29T05:29:25;3.23;;;2.93;;
462;SDS011;218;51.902;9.542;2023-07-29T05:31:52;3.07;;;2.87;;
462;SDS011;218;51.902;9.542;2023-07-29T05:34:18;4.03;;;3.00;;
462;SDS011;218;51.902;9.542;2023-07-29T05:36:45;2.70;;;2.50;;
462;SDS011;218;51.902;9.542;2023-07-29T05:39:14;3.20;;;3.00;;
462;SDS011;218;51.902;9.542;2023-07-29T05:41:40;3.70;;;3.13;;
462;SDS011;218;51.902;9.542;2023-07-29T05:44:07;2.90;;;2.60;;
462;SDS011;218;51.902;9.542;2023-07-29T05:46:40;2.97;;;2.77;;
462;SDS011;218;51.902;9.542;2023-07-29T05:49:07;3.80;;;3.50;;
462;SDS011;218;51.902;9.542;2023-07-29T05:51:34;3.00;;;2.70;;
462;SDS011;218;51.902;9.542;2023-07-29T05:54:01;2.63;;;2.43;;
462;SDS011;218;51.902;9.542;2023-07-29T05:56:29;2.20;;;2.10;;
462;SDS011;218;51.902;9.542;2023-07-29T05:58:56;2.63;;;2.43;;
462;SDS011;218;51.902;9.542;2023-07-29T06:01:23;4.47;;;2.30;;
462;SDS011;218;51.902;9.542;2023-07-29T06:03:50;2.83;;;2.50;;
462;SDS011;218;51.902;9.542;2023-07-29T06:06:17;2.67;;;2.47;;
462;SDS011;218;51.902;9.542;2023-07-29T06:08:44;2.50;;;2.30;;
462;SDS011;218;51.902;9.542;2023-07-29T06:11:11;2.23;;;2.03;;
462;SDS011;218;51.902;9.542;2023-07-29T06:13:39;2.10;;;2.00;;
462;SDS011;218;51.902;9.542;2023-07-29T06:16:06;2.20;;;2.10;;
462;SDS011;218;51.902;9.542;2023-07-29T06:18:33;2.57;;;2.37;;
462;SDS011;218;51.902;9.542;2023-07-29T06:21:00;2.63;;;2.20;;
462;SDS011;218;51.902;9.542;2023-07-29T06:23:27;1.93;;;1.80;;
462;SDS011;218;51.902;9.542;2023-07-29T06:25:54;2.30;;;1.80;;
462;SDS011;218;51.902;9.542;2023-07-29T06:28:20;2.57;;;2.20;;
462;SDS011;218;51.902;9.542;2023-07-29T06:30:49;2.20;;;2.10;;
462;SDS011;218;51.902;9.542;2023-07-29T06:33:16;2.70;;;2.60;;
462;SDS011;218;51.902;9.542;2023-07-29T06:35:43;2.53;;;2.43;;
462;SDS011;218;51.902;9.542;2023-07-29T06:38:10;2.70;;;2.50;;
462;SDS011;218;51.902;9.542;2023-07-29T06:40:37;2.23;;;2.13;;
462;SDS011;218;51.902;9.542;2023-07-29T06:43:04;2.57;;;2.40;;
462;SDS011;218;51.902;9.542;2023-07-29T06:45:30;2.17;;;2.03;;
462;SDS011;218;51.902;9.542;2023-07-29T06:47:59;2.73;;;2.53;;
462;SDS011;218;51.902;9.542;2023-07-29T06:50:26;3.03;;;2.80;;
462;SDS011;218;51.902;9.542;2023-07-29T06:52:53;3.30;;;2.70;;
462;SDS011;218;51.902;9.542;2023-07-29T06:55:19;3.07;;;2.87;;
462;SDS011;218;51.902;9.542;2023-07-29T06:57:46;2.77;;;2.57;;
462;SDS011;218;51.902;9.542;2023-07-29T07:00:14;3.30;;;3.10;;
462;SDS011;218;51.902;9.542;2023-07-29T07:02:41;3.23;;;2.97;;
462;SDS011;218;51.902;9.542;2023-07-29T07:05:10;3.00;;;2.80;;
462;SDS011;218;51.902;9.542;2023-07-29T07:07:37;3.33;;;3.03;;
462;SDS011;218;51.902;9.542;2023-07-29T07:10:04;2.97;;;2.70;;
462;SDS011;218;51.902;9.542;2023-07-29T07:12:32;3.23;;;3.03;;
462;SDS011;218;51.902;9.542;2023-07-29T07:14:59;3.53;;;3.23;;
462;SDS011;218;51.902;9.542;2023-07-29T07:17:26;3.30;;;3.10;;
462;SDS011;218;51.902;9.542;2023-07-29T07:19:53;3.30;;;3.10;;
462;SDS011;218;51.902;9.542;2023-07-29T07:22:21;2.97;;;2.77;;
462;SDS011;218;51.902;9.542;2023-07-29T07:24:49;3.10;;;2.90;;
462;SDS011;218;51.902;9.542;2023-07-29T07:27:15;3.30;;;3.00;;
462;SDS011;218;51.902;9.542;2023-07-29T07:29:42;3.50;;;3.20;;
462;SDS011;218;51.902;9.542;2023-07-29T07:32:09;3.27;;;3.07;;
462;SDS011;218;51.902;9.542;2023-07-29T07:34:36;3.50;;;3.30;;
462;SDS011;218;51.902;9.542;2023-07-29T07:37:03;2.67;;;2.53;;
462;SDS011;218;51.902;9.542;2023-07-29T07:39:32;3.23;;;2.47;;
462;SDS011;218;51.902;9.542;2023-07-29T07:41:59;2.90;;;2.60;;
462;SDS011;218;51.902;9.542;2023-07-29T07:44:26;2.93;;;2.70;;
462;SDS011;218;51.902;9.542;2023-07-29T07:46:53;3.37;;;3.07;;
462;SDS011;218;51.902;9.542;2023-07-29T07:49:20;4.97;;;3.20;;
462;SDS011;218;51.902;9.542;2023-07-29T07:51:48;3.60;;;3.37;;
462;SDS011;218;51.902;9.542;2023-07-29T07:54:15;3.70;;;3.40;;
462;SDS011;218;51.902;9.542;2023-07-29T07:56:44;3.20;;;3.00;;
462;SDS011;218;51.902;9.542;2023-07-29T07:59:10;3.90;;;3.70;;
462;SDS011;218;51.902;9.542;2023-07-29T08:01:38;3.33;;;3.13;;
462;SDS011;218;51.902;9.542;2023-07-29T08:04:05;3.00;;;2.90;;
462;SDS011;218;51.902;9.542;2023-07-29T08:06:32;3.20;;;3.00;;
462;SDS011;218;51.902;9.542;2023-07-29T08:09:00;3.40;;;3.20;;
462;SDS011;218;51.902;9.542;2023-07-29T08:11:27;3.10;;;2.90;;
462;SDS011;218;51.902;9.542;2023-07-29T08:13:55;3.17;;;2.87;;
462;SDS011;218;51.902;9.542;2023-07-29T08:16:22;3.60;;;3.30;;
462;SDS011;218;51.902;9.542;2023-07-29T08:18:49;3.60;;;3.40;;
462;SDS011;218;51.902;9.542;2023-07-29T08:21:16;2.87;;;2.77;;
462;SDS011;218;51.902;9.542;2023-07-29T08:23:43;3.87;;;3.60;;
462;SDS011;218;51.902;9.542;2023-07-29T08:26:10;3.00;;;2.80;;
462;SDS011;218;51.902;9.542;2023-07-29T08:28:37;3.37;;;2.77;;
462;SDS011;218;51.902;9.542;2023-07-29T08:31:06;3.43;;;3.13;;
462;SDS011;218;51.902;9.542;2023-07-29T08:33:34;3.50;;;3.30;;
462;SDS011;218;51.902;9.542;2023-07-29T08:36:01;3.30;;;3.10;;
462;SDS011;218;51.902;9.542;2023-07-29T08:38:28;3.43;;;3.13;;
462;SDS011;218;51.902;9.542;2023-07-29T08:40:57;4.07;;;3.67;;
462;SDS011;218;51.902;9.542;2023-07-29T08:43:31;3.27;;;3.07;;
462;SDS011;218;51.902;9.542;2023-07-29T08:45:59;4.73;;;3.20;;
462;SDS011;218;51.902;9.542;2023-07-29T08:48:32;3.77;;;3.57;;
462;SDS011;218;51.902;9.542;2023-07-29T08:51:05;3.80;;;3.60;;
462;SDS011;218;51.902;9.542;2023-07-29T08:53:35;3.20;;;3.00;;
462;SDS011;218;51.902;9.542;2023-07-29T08:56:02;3.80;;;2.93;;
462;SDS011;218;51.902;9.542;2023-07-29T08:58:30;3.60;;;2.70;;
462;SDS011;218;51.902;9.542;2023-07-29T09:00:57;3.50;;;3.20;;
462;SDS011;218;51.902;9.542;2023-07-29T09:03:24;3.43;;;3.00;;
462;SDS011;218;51.902;9.542;2023-07-29T09:05:52;3.20;;;3.00;;
462;SDS011;218;51.902;9.542;2023-07-29T09:08:21;3.30;;;3.10;;
462;SDS011;218;51.902;9.542;2023-07-29T09:10:48;3.00;;;2.90;;
462;SDS011;218;51.902;9.542;2023-07-29T09:13:15;3.10;;;2.90;;
462;SDS011;218;51.902;9.542;2023-07-29T09:15:42;3.67;;;3.37;;
462;SDS011;218;51.902;9.542;2023-07-29T09:18:09;4.40;;;4.00;;
462;SDS011;218;51.902;9.542;2023-07-29T09:20:37;3.60;;;3.40;;
462;SDS011;218;51.902;9.542;2023-07-29T09:23:07;4.07;;;3.77;;
462;SDS011;218;51.902;9.542;2023-07-29T09:25:35;4.80;;;4.50;;
462;SDS011;218;51.902;9.542;2023-07-29T09:28:09;5.07;;;4.60;;
462;SDS011;218;51.902;9.542;2023-07-29T09:30:37;5.63;;;5.13;;
462;SDS011;218;51.902;9.542;2023-07-29T09:33:04;5.50;;;5.10;;
462;SDS011;218;51.902;9.542;2023-07-29T09:35:32;6.17;;;5.77;;
462;SDS011;218;51.902;9.542;2023-07-29T09:38:00;7.33;;;6.83;;
462;SDS011;218;51.902;9.542;2023-07-29T09:40:35;8.87;;;8.20;;
462;SDS011;218;51.902;9.542;2023-07-29T09:43:05;8.47;;;7.77;;
462;SDS011;218;51.902;9.542;2023-07-29T09:45:33;10.33;;;9.63;;
462;SDS011;218;51.902;9.542;2023-07-29T09:48:01;11.40;;;10.50;;
462;SDS011;218;51.902;9.542;2023-07-29T09:50:30;11.80;;;10.90;;
462;SDS011;218;51.902;9.542;2023-07-29T09:52:57;12.40;;;11.50;;
462;SDS011;218;51.902;9.542;2023-07-29T09:55:24;13.27;;;12.20;;
462;SDS011;218;51.902;9.542;2023-07-29T09:57:54;12.20;;;11.30;;
462;SDS011;218;51.902;9.542;2023-07-29T10:00:25;12.60;;;11.70;;
462;SDS011;218;51.902;9.542;2023-07-29T10:02:53;11.90;;;11.10;;
462;SDS011;218;51.902;9.542;2023-07-29T10:05:20;11.33;;;10.43;;
462;SDS011;218;51.902;9.542;2023-07-29T10:07:48;12.50;;;11.70;;
462;SDS011;218;51.902;9.542;2023-07-29T10:10:16;11.10;;;10.40;;
462;SDS011;218;51.902;9.542;2023-07-29T10:12:43;11.33;;;10.53;;
462;SDS011;218;51.902;9.542;2023-07-29T10:15:12;11.73;;;10.83;;
462;SDS011;218;51.902;9.542;2023-07-29T10:17:40;10.90;;;10.10;;
462;SDS011;218;51.902;9.542;2023-07-29T10:20:09;10.40;;;9.60;;
462;SDS011;218;51.902;9.542;2023-07-29T10:22:38;10.60;;;9.80;;
462;SDS011;218;51.902;9.542;2023-07-29T10:25:07;10.67;;;9.97;;
462;SDS011;218;51.902;9.542;2023-07-29T10:27:42;9.33;;;8.63;;
462;SDS011;218;51.902;9.542;2023-07-29T10:30:14;9.07;;;8.47;;
462;SDS011;218;51.902;9.542;2023-07-29T10:32:44;10.10;;;9.30;;
462;SDS011;218;51.902;9.542;2023-07-29T10:35:12;9.93;;;9.23;;
462;SDS011;218;51.902;9.542;2023-07-29T10:37:39;8.93;;;8.33;;
462;SDS011;218;51.902;9.542;2023-07-29T10:40:08;9.87;;;9.10;;
462;SDS011;218;51.902;9.542;2023-07-29T10:42:36;8.53;;;7.93;;
462;SDS011;218;51.902;9.542;2023-07-29T10:45:18;8.67;;;8.17;;
462;SDS011;218;51.902;9.542;2023-07-29T10:47:46;8.60;;;8.00;;
462;SDS011;218;51.902;9.542;2023-07-29T10:50:17;8.10;;;7.60;;
462;SDS011;218;51.902;9.542;2023-07-29T10:52:48;7.53;;;7.00;;
462;SDS011;218;51.902;9.542;2023-07-29T10:55:27;5.87;;;5.50;;
462;SDS011;218;51.902;9.542;2023-07-29T11:00:43;4.93;;;4.63;;
462;SDS011;218;51.902;9.542;2023-07-29T11:03:11;5.17;;;4.83;;
462;SDS011;218;51.902;9.542;2023-07-29T11:05:50;4.83;;;4.53;;
462;SDS011;218;51.902;9.542;2023-07-29T11:08:22;4.43;;;4.13;;
462;SDS011;218;51.902;9.542;2023-07-29T11:11:00;4.90;;;4.50;;
462;SDS011;218;51.902;9.542;2023-07-29T11:13:29;4.50;;;4.20;;
462;SDS011;218;51.902;9.542;2023-07-29T11:15:58;4.20;;;3.90;;
462;SDS011;218;51.902;9.542;2023-07-29T11:18:26;4.20;;;4.00;;
462;SDS011;218;51.902;9.542;2023-07-29T11:20:55;4.50;;;4.10;;
462;SDS011;218;51.902;9.542;2023-07-29T11:23:27;3.67;;;3.40;;
462;SDS011;218;51.902;9.542;2023-07-29T11:25:58;3.43;;;3.13;;
462;SDS011;218;51.902;9.542;2023-07-29T11:28:26;3.80;;;3.50;;
462;SDS011;218;51.902;9.542;2023-07-29T11:30:54;3.20;;;2.90;;
462;SDS011;218;51.902;9.542;2023-07-29T11:33:23;3.50;;;3.30;;
462;SDS011;218;51.902;9.542;2023-07-29T11:35:53;3.50;;;3.30;;
462;SDS011;218;51.902;9.542;2023-07-29T11:38:20;4.30;;;3.90;;
462;SDS011;218;51.902;9.542;2023-07-29T11:40:54;3.97;;;3.77;;
462;SDS011;218;51.902;9.542;2023-07-29T11:43:22;3.30;;;3.10;;
462;SDS011;218;51.902;9.542;2023-07-29T11:45:50;3.17;;;2.97;;
462;SDS011;218;51.902;9.542;2023-07-29T11:48:18;3.17;;;2.93;;
462;SDS011;218;51.902;9.542;2023-07-29T11:50:53;2.77;;;2.47;;
462;SDS011;218;51.902;9.542;2023-07-29T11:53:21;2.73;;;2.53;;
462;SDS011;218;51.902;9.542;2023-07-29T11:55:49;2.50;;;2.30;;
462;SDS011;218;51.902;9.542;2023-07-29T11:58:18;2.60;;;2.50;;
462;SDS011;218;51.902;9.542;2023-07-29T12:00:46;2.20;;;2.10;;
462;SDS011;218;51.902;9.542;2023-07-29T12:03:13;2.40;;;2.20;;
462;SDS011;218;51.902;9.542;2023-07-29T12:05:44;3.20;;;2.03;;
462;SDS011;218;51.902;9.542;2023-07-29T12:08:11;2.03;;;1.83;;
462;SDS011;218;51.902;9.542;2023-07-29T12:10:38;2.00;;;1.90;;
462;SDS011;218;51.902;9.542;2023-07-29T12:13:05;2.77;;;2.57;;
462;SDS011;218;51.902;9.542;2023-07-29T12:15:34;2.70;;;2.50;;
462;SDS011;218;51.902;9.542;2023-07-29T12:18:04;2.50;;;2.40;;
462;SDS011;218;51.902;9.542;2023-07-29T12:20:31;2.10;;;2.00;;
462;SDS011;218;51.902;9.542;2023-07-29T12:23:00;2.07;;;1.97;;
462;SDS011;218;51.902;9.542;2023-07-29T12:25:28;2.13;;;2.03;;
462;SDS011;218;51.902;9.542;2023-07-29T12:27:55;2.60;;;2.40;;
462;SDS011;218;51.902;9.542;2023-07-29T12:30:22;3.00;;;2.70;;
462;SDS011;218;51.902;9.542;2023-07-29T12:32:49;4.03;;;2.23;;
462;SDS011;218;51.902;9.542;2023-07-29T12:35:16;2.33;;;2.20;;
462;SDS011;218;51.902;9.542;2023-07-29T12:37:43;2.70;;;2.37;;
462;SDS011;218;51.902;9.542;2023-07-29T12:40:24;2.20;;;2.10;;
462;SDS011;218;51.902;9.542;2023-07-29T12:42:52;2.50;;;2.30;;
462;SDS011;218;51.902;9.542;2023-07-29T12:45:20;2.23;;;2.13;;
462;SDS011;218;51.902;9.542;2023-07-29T12:47:48;1.60;;;1.50;;
462;SDS011;218;51.902;9.542;2023-07-29T12:50:15;2.33;;;2.13;;
462;SDS011;218;51.902;9.542;2023-07-29T12:52:43;2.10;;;2.00;;
462;SDS011;218;51.902;9.542;2023-07-29T12:55:10;2.07;;;1.97;;
462;SDS011;218;51.902;9.542;2023-07-29T12:57:40;2.30;;;2.20;;
462;SDS011;218;51.902;9.542;2023-07-29T13:00:08;1.87;;;1.77;;
462;SDS011;218;51.902;9.542;2023-07-29T13:02:36;1.90;;;1.80;;
462;SDS011;218;51.902;9.542;2023-07-29T13:05:04;2.30;;;2.00;;
462;SDS011;218;51.902;9.542;2023-07-29T13:07:31;2.17;;;2.07;;
462;SDS011;218;51.902;9.542;2023-07-29T13:09:58;2.20;;;2.00;;
462;SDS011;218;51.902;9.542;2023-07-29T13:12:26;2.30;;;2.20;;
462;SDS011;218;51.902;9.542;2023-07-29T13:14:54;2.00;;;1.90;;
462;SDS011;218;51.902;9.542;2023-07-29T13:17:21;2.10;;;2.00;;
462;SDS011;218;51.902;9.542;2023-07-29T13:19:48;1.93;;;1.83;;
462;SDS011;218;51.902;9.542;2023-07-29T13:22:15;2.40;;;2.13;;
462;SDS011;218;51.902;9.542;2023-07-29T13:24:42;2.73;;;2.17;;
462;SDS011;218;51.902;9.542;2023-07-29T13:27:09;2.20;;;2.10;;
462;SDS011;218;51.902;9.542;2023-07-29T13:29:36;2.70;;;2.50;;
462;SDS011;218;51.902;9.542;2023-07-29T13:32:05;1.90;;;1.80;;
462;SDS011;218;51.902;9.542;2023-07-29T13:34:33;2.63;;;2.43;;
462;SDS011;218;51.902;9.542;2023-07-29T13:37:00;2.27;;;2.17;;
462;SDS011;218;51.902;9.542;2023-07-29T13:39:27;2.20;;;2.10;;
462;SDS011;218;51.902;9.542;2023-07-29T13:41:54;2.50;;;2.30;;
462;SDS011;218;51.902;9.542;2023-07-29T13:44:21;2.40;;;2.20;;
462;SDS011;218;51.902;9.542;2023-07-29T13:46:48;1.90;;;1.80;;
462;SDS011;218;51.902;9.542;2023-07-29T13:49:16;2.07;;;1.97;;
462;SDS011;218;51.902;9.542;2023-07-29T13:51:43;2.03;;;1.93;;
462;SDS011;218;51.902;9.542;2023-07-29T13:54:10;2.53;;;2.27;;
462;SDS011;218;51.902;9.542;2023-07-29T13:56:37;2.00;;;1.90;;
462;SDS011;218;51.902;9.542;2023-07-29T13:59:04;3.07;;;2.83;;
462;SDS011;218;51.902;9.542;2023-07-29T14:01:31;2.47;;;2.37;;
462;SDS011;218;51.902;9.542;2023-07-29T14:03:58;2.40;;;2.30;;
462;SDS011;218;51.902;9.542;2023-07-29T14:06:27;2.40;;;2.20;;
462;SDS011;218;51.902;9.542;2023-07-29T14:08:53;2.93;;;2.73;;
462;SDS011;218;51.902;9.542;2023-07-29T14:11:20;3.00;;;2.80;;
462;SDS011;218;51.902;9.542;2023-07-29T14:13:47;2.37;;;2.27;;
462;SDS011;218;51.902;9.542;2023-07-29T14:16:14;2.90;;;2.70;;
462;SDS011;218;51.902;9.542;2023-07-29T14:18:41;3.30;;;3.00;;
462;SDS011;218;51.902;9.542;2023-07-29T14:21:08;3.23;;;3.03;;
462;SDS011;218;51.902;9.542;2023-07-29T14:23:36;3.90;;;2.63;;
462;SDS011;218;51.902;9.542;2023-07-29T14:26:03;2.73;;;2.57;;
462;SDS011;218;51.902;9.542;2023-07-29T14:28:30;3.03;;;2.83;;
462;SDS011;218;51.902;9.542;2023-07-29T14:30:57;3.30;;;3.07;;
462;SDS011;218;51.902;9.542;2023-07-29T14:33:24;3.50;;;3.30;;
462;SDS011;218;51.902;9.542;2023-07-29T14:35:51;3.93;;;2.90;;
462;SDS011;218;51.902;9.542;2023-07-29T14:38:18;3.80;;;3.50;;
462;SDS011;218;51.902;9.542;2023-07-29T14:40:47;3.20;;;3.07;;
462;SDS011;218;51.902;9.542;2023-07-29T14:43:15;3.50;;;3.30;;
462;SDS011;218;51.902;9.542;2023-07-29T14:45:42;3.33;;;3.03;;
462;SDS011;218;51.902;9.542;2023-07-29T14:48:09;4.03;;;3.83;;
462;SDS011;218;51.902;9.542;2023-07-29T14:50:36;3.27;;;3.07;;
462;SDS011;218;51.902;9.542;2023-07-29T14:53:03;2.93;;;2.77;;
462;SDS011;218;51.902;9.542;2023-07-29T14:55:30;3.30;;;3.07;;
462;SDS011;218;51.902;9.542;2023-07-29T14:57:59;3.60;;;3.40;;
462;SDS011;218;51.902;9.542;2023-07-29T15:00:26;3.40;;;2.90;;
462;SDS011;218;51.902;9.542;2023-07-29T15:02:53;2.80;;;2.60;;
462;SDS011;218;51.902;9.542;2023-07-29T15:05:20;3.73;;;3.43;;
462;SDS011;218;51.902;9.542;2023-07-29T15:07:47;2.80;;;2.60;;
462;SDS011;218;51.902;9.542;2023-07-29T15:10:14;7.77;;;5.20;;
462;SDS011;218;51.902;9.542;2023-07-29T15:12:42;3.63;;;3.33;;
462;SDS011;218;51.902;9.542;2023-07-29T15:15:11;3.20;;;3.00;;
462;SDS011;218;51.902;9.542;2023-07-29T15:17:38;3.20;;;3.00;;
462;SDS011;218;51.902;9.542;2023-07-29T15:20:05;3.10;;;2.90;;
462;SDS011;218;51.902;9.542;2023-07-29T15:22:32;3.17;;;2.97;;
462;SDS011;218;51.902;9.542;2023-07-29T15:24:59;2.63;;;2.53;;
462;SDS011;218;51.902;9.542;2023-07-29T15:27:27;3.13;;;2.90;;
462;SDS011;218;51.902;9.542;2023-07-29T15:29:54;3.30;;;3.10;;
462;SDS011;218;51.902;9.542;2023-07-29T15:32:22;3.07;;;2.87;;
462;SDS011;218;51.902;9.542;2023-07-29T15:34:49;2.90;;;2.70;;
462;SDS011;218;51.902;9.542;2023-07-29T15:37:17;3.70;;;3.40;;
462;SDS011;218;51.902;9.542;2023-07-29T15:39:43;3.33;;;3.03;;
462;SDS011;218;51.902;9.542;2023-07-29T15:42:11;3.17;;;2.97;;
462;SDS011;218;51.902;9.542;2023-07-29T15:44:38;2.60;;;2.50;;
462;SDS011;218;51.902;9.542;2023-07-29T15:47:05;2.77;;;2.57;;
462;SDS011;218;51.902;9.542;2023-07-29T15:49:33;3.10;;;2.90;;
462;SDS011;218;51.902;9.542;2023-07-29T15:52:01;2.73;;;2.53;;